메인 페이지
METAR-TAF:

METAR-TAF

공항 :

킹 압둘아지즈 국제공항

지다, 사우디아라비아

위도: 21-42N, 경도: 039-11E, 고도: 15m

현재 날씨관측

예보는 41분 전, 13:00시(UTC)에 발표되었습니다.
남서10kt
온도 35°C
습도 37%
기압 1008 hPa
시정 10km 이상
1500m 미만 상공 구름 및 적란운 없음

METAR: OEJN 071300Z 22010KT CAVOK 35/18 Q1008 NOSIG

시각: 16:41 (13:41 UTC)

예보

예보는 2 시간 41분 전, 11:00시(UTC)에 발표되었습니다.
예보 대상 시간: 07일 12시부터 08일 18시까지 (UTC)
13kt
시정 10km 이상
1500m 미만 상공 구름 및 적란운 없음
전환 중
07일 18시부터 07일 20시까지 (UTC)
동북동6kt
시정: 8000m
전환 중
08일 06시부터 08일 08시까지 (UTC)
서남서10kt

TAF: OEJN 071100Z 0712/0818 27013KT CAVOK BECMG 0718/0720 06006KT 8000 NSC BECMG 0806/0808 24010KT

4,000개 이상의 공항 관측 자료 및 예보 (METAR 및 TAF 보고).

지도상에서 검색 가능한 기상관측소가 노란 점과 빨간 점으로 표시되어 있습니다.

기상관측소 명을 보려면 표시 위로 마우스를 이동하세요.

날씨 관측과 예보를 보려면 클릭하세요.

지도 변경 : 확대하려면 엑스 표시가 있는 녹색 버튼, 축소하려면 빼기 표시가 있는 녹색 버튼, 다음 페이지의 지도를 보려면 녹색 화살표를 클릭하세요.


METAR-TAF: